Time;durP1;ratioP1;P1;durP2;ratioP2;P2;SDS_P1;SDS_P2;PMS_P1;PMS_P2;Temp;Humidity;BMP_temperature;BMP_pressure;BME280_temperature;BME280_humidity;BME280_pressure;Samples;Min_cycle;Max_cycle;Signal;HPM_P1;HPM_P2
2024/02/20 00:01:01;;;;;;;3.80;2.80;;;8.90;99.90;;;;;;5091168;28;20213;-61
2024/02/20 00:03:28;;;;;;;2.83;2.57;;;8.80;99.90;;;;;;5090073;28;20523;-61
2024/02/20 00:05:55;;;;;;;4.50;2.97;;;8.90;99.90;;;;;;5090452;28;20526;-61
2024/02/20 00:08:22;;;;;;;3.90;2.90;;;8.80;99.90;;;;;;5090269;28;20999;-61
2024/02/20 00:10:50;;;;;;;3.30;3.00;;;8.80;99.90;;;;;;5090074;28;20574;-61
2024/02/20 00:13:18;;;;;;;3.28;2.03;;;8.80;99.90;;;;;;5089572;28;20801;-61
2024/02/20 00:15:46;;;;;;;2.55;2.35;;;8.70;99.90;;;;;;5090573;28;20233;-61
2024/02/20 00:18:13;;;;;;;2.30;2.00;;;8.70;99.90;;;;;;5090330;28;20296;-61
2024/02/20 00:20:42;;;;;;;2.80;2.60;;;8.70;99.90;;;;;;5090146;28;20452;-61
2024/02/20 00:23:10;;;;;;;3.67;2.55;;;8.70;99.90;;;;;;5087811;28;20552;-61
2024/02/20 00:25:37;;;;;;;3.78;2.22;;;8.60;99.90;;;;;;5079330;28;20231;-61
2024/02/20 00:28:04;;;;;;;3.17;2.07;;;8.60;99.90;;;;;;5085410;28;20223;-61
2024/02/20 00:30:33;;;;;;;2.73;2.40;;;8.60;99.90;;;;;;5082780;28;20487;-61
2024/02/20 00:32:59;;;;;;;2.58;2.38;;;8.60;99.90;;;;;;5090306;28;20443;-61
2024/02/20 00:35:26;;;;;;;3.33;2.67;;;8.60;99.90;;;;;;5088137;28;20205;-61
2024/02/20 00:37:53;;;;;;;7.00;2.03;;;8.50;99.90;;;;;;5088486;28;20451;-61
2024/02/20 00:40:20;;;;;;;4.55;2.80;;;8.50;99.90;;;;;;5089121;28;20227;-61
2024/02/20 00:42:47;;;;;;;3.03;2.10;;;8.50;99.90;;;;;;5089504;28;20302;-61
2024/02/20 00:45:13;;;;;;;3.28;2.40;;;8.50;99.90;;;;;;5089711;28;20945;-61
2024/02/20 00:47:41;;;;;;;2.78;2.53;;;8.50;99.90;;;;;;5089874;28;20213;-61
2024/02/20 00:50:09;;;;;;;2.17;1.98;;;8.50;99.90;;;;;;5089691;28;20235;-61
2024/02/20 00:52:36;;;;;;;3.40;2.03;;;8.50;99.90;;;;;;5089608;28;20213;-61
2024/02/20 00:55:05;;;;;;;2.50;2.10;;;8.50;99.90;;;;;;5089950;28;20471;-60
2024/02/20 00:57:32;;;;;;;2.33;2.07;;;8.50;99.90;;;;;;5090196;28;20209;-61
2024/02/20 00:59:59;;;;;;;2.78;2.22;;;8.50;99.90;;;;;;5089994;28;20446;-61
2024/02/20 01:02:26;;;;;;;3.23;2.63;;;8.50;99.90;;;;;;5089650;28;20247;-61
2024/02/20 01:04:54;;;;;;;3.10;2.80;;;8.40;99.90;;;;;;5089798;28;20955;-61
2024/02/20 01:07:20;;;;;;;2.20;2.00;;;8.40;99.90;;;;;;5089836;28;20217;-61
2024/02/20 01:09:47;;;;;;;4.10;2.65;;;8.40;99.90;;;;;;5089477;28;20326;-61
2024/02/20 01:12:14;;;;;;;3.30;3.00;;;8.30;99.90;;;;;;5088737;28;20596;-61
2024/02/20 01:14:42;;;;;;;3.03;2.83;;;8.30;99.90;;;;;;5089639;28;20470;-61
2024/02/20 01:17:09;;;;;;;6.10;3.35;;;8.30;99.90;;;;;;5089531;28;20224;-61
2024/02/20 01:19:36;;;;;;;3.75;3.33;;;8.20;99.90;;;;;;5089559;28;20205;-61
2024/02/20 01:22:05;;;;;;;3.67;3.15;;;8.20;99.90;;;;;;5089238;28;20215;-61
2024/02/20 01:24:32;;;;;;;4.57;3.78;;;8.20;99.90;;;;;;5089356;28;20239;-61
2024/02/20 01:26:59;;;;;;;2.53;2.35;;;8.20;99.90;;;;;;5089619;28;20242;-61
2024/02/20 01:29:26;;;;;;;6.75;2.45;;;8.20;99.90;;;;;;5089307;28;20231;-61
2024/02/20 01:31:53;;;;;;;4.05;2.40;;;8.10;99.90;;;;;;5088993;28;20592;-61
2024/02/20 01:34:20;;;;;;;3.63;2.70;;;8.10;99.90;;;;;;5089773;28;20674;-61
2024/02/20 01:36:46;;;;;;;5.55;3.08;;;8.00;99.90;;;;;;5089284;28;20221;-61
2024/02/20 01:39:15;;;;;;;6.40;3.38;;;8.00;99.90;;;;;;5089036;28;20213;-61
2024/02/20 01:41:43;;;;;;;2.90;2.60;;;7.90;99.90;;;;;;5088763;28;20230;-61
2024/02/20 01:44:10;;;;;;;4.03;3.50;;;7.80;99.90;;;;;;5088996;28;20261;-61
2024/02/20 01:46:38;;;;;;;2.45;2.25;;;7.70;99.90;;;;;;5089027;28;20672;-61
2024/02/20 01:49:05;;;;;;;2.97;2.65;;;7.60;99.90;;;;;;5088820;28;20211;-61
2024/02/20 01:51:33;;;;;;;2.65;2.00;;;7.50;99.90;;;;;;5089258;28;20224;-61
2024/02/20 01:54:00;;;;;;;2.65;2.42;;;7.40;99.90;;;;;;5089001;28;20233;-61
2024/02/20 01:56:29;;;;;;;2.33;2.13;;;7.30;99.90;;;;;;5088899;28;20220;-61
2024/02/20 01:58:56;;;;;;;1.85;1.75;;;7.30;99.90;;;;;;5088774;28;20220;-61
2024/02/20 02:01:25;;;;;;;3.05;2.45;;;7.20;99.90;;;;;;5089211;28;20205;-61
2024/02/20 02:03:51;;;;;;;2.30;2.10;;;7.20;99.90;;;;;;5088755;28;20615;-61
2024/02/20 02:06:27;;;;;;;4.43;2.05;;;7.10;99.90;;;;;;5089141;28;20603;-61
2024/02/20 02:08:54;;;;;;;3.83;2.70;;;7.20;99.90;;;;;;5088712;28;20327;-61
2024/02/20 02:11:21;;;;;;;3.65;2.38;;;7.10;99.90;;;;;;5088646;28;20233;-61
2024/02/20 02:13:49;;;;;;;3.20;2.75;;;7.10;99.90;;;;;;5088307;28;20605;-61
2024/02/20 02:16:16;;;;;;;5.50;3.25;;;7.10;99.90;;;;;;5088452;28;20686;-61
2024/02/20 02:18:43;;;;;;;2.20;1.98;;;7.10;99.90;;;;;;5088530;28;20205;-61
2024/02/20 02:21:10;;;;;;;2.42;2.22;;;7.20;99.90;;;;;;5088788;28;20562;-61
2024/02/20 02:23:37;;;;;;;2.83;2.53;;;7.20;99.90;;;;;;5087821;28;20229;-61
2024/02/20 02:26:08;;;;;;;2.05;1.95;;;7.20;99.90;;;;;;5088424;28;20220;-61
2024/02/20 02:28:34;;;;;;;3.22;2.28;;;7.20;99.90;;;;;;5088985;28;20209;-61
2024/02/20 02:31:01;;;;;;;3.53;2.60;;;7.30;99.90;;;;;;5086603;28;20241;-61
2024/02/20 02:33:28;;;;;;;3.65;2.85;;;7.30;99.90;;;;;;5087696;28;20231;-60
2024/02/20 02:35:54;;;;;;;3.15;2.65;;;7.30;99.90;;;;;;5088658;28;20208;-60
2024/02/20 02:38:21;;;;;;;8.15;3.95;;;7.40;99.90;;;;;;5088417;28;20660;-61
2024/02/20 02:40:48;;;;;;;2.90;2.42;;;7.30;99.90;;;;;;5082058;28;20216;-61
2024/02/20 02:43:16;;;;;;;2.60;2.40;;;7.40;99.90;;;;;;5087916;28;20814;-61
2024/02/20 02:45:43;;;;;;;4.00;3.60;;;7.50;99.90;;;;;;5088342;28;20212;-61
2024/02/20 02:48:11;;;;;;;3.88;3.08;;;7.50;99.90;;;;;;5088283;28;20204;-61
2024/02/20 02:50:37;;;;;;;4.43;3.58;;;7.50;99.90;;;;;;5088052;28;20339;-61
2024/02/20 02:53:05;;;;;;;3.35;3.00;;;7.60;99.90;;;;;;5080751;28;20212;-62
2024/02/20 02:55:32;;;;;;;5.13;3.63;;;7.60;99.90;;;;;;5079910;28;20246;-61
2024/02/20 02:57:59;;;;;;;4.18;3.75;;;7.70;99.90;;;;;;5088257;28;20686;-61
2024/02/20 03:00:27;;;;;;;4.65;4.25;;;7.70;99.90;;;;;;5088212;28;20215;-61
2024/02/20 03:02:54;;;;;;;4.72;4.32;;;7.80;99.90;;;;;;5087651;28;20213;-61
2024/02/20 03:05:21;;;;;;;5.40;3.42;;;7.90;99.90;;;;;;5088248;28;20295;-61
2024/02/20 03:07:48;;;;;;;4.68;3.55;;;7.90;99.90;;;;;;5088488;28;20216;-61
2024/02/20 03:10:15;;;;;;;3.17;2.88;;;7.90;99.90;;;;;;5088080;28;20606;-61
2024/02/20 03:12:42;;;;;;;3.92;2.78;;;8.00;99.90;;;;;;5087839;28;20303;-61
2024/02/20 03:15:11;;;;;;;5.15;3.53;;;8.00;99.90;;;;;;5088137;28;20315;-61
2024/02/20 03:17:43;;;;;;;3.47;3.17;;;8.00;99.90;;;;;;5088097;28;20205;-61
2024/02/20 03:20:14;;;;;;;2.75;2.55;;;8.10;99.90;;;;;;5087757;28;20209;-61
2024/02/20 03:22:42;;;;;;;4.13;3.42;;;8.10;99.90;;;;;;5087802;28;20209;-61
2024/02/20 03:25:09;;;;;;;3.77;3.03;;;8.00;99.90;;;;;;5087903;28;20241;-61
2024/02/20 03:27:36;;;;;;;6.60;3.30;;;8.00;99.90;;;;;;5087816;28;20447;-61
2024/02/20 03:30:05;;;;;;;3.63;3.33;;;8.00;99.90;;;;;;5087806;28;20239;-61
2024/02/20 03:32:32;;;;;;;4.43;3.17;;;8.00;99.90;;;;;;5087488;28;20217;-61
2024/02/20 03:35:00;;;;;;;5.45;3.30;;;8.00;99.90;;;;;;5090537;28;20315;-61
2024/02/20 03:37:27;;;;;;;4.22;3.63;;;8.00;99.90;;;;;;5091800;28;20216;-61
2024/02/20 03:39:54;;;;;;;5.03;3.37;;;8.00;99.90;;;;;;5091389;28;20216;-61
2024/02/20 03:42:21;;;;;;;3.60;3.05;;;8.10;99.90;;;;;;5091013;28;20447;-61
2024/02/20 03:44:48;;;;;;;5.53;4.28;;;8.20;99.90;;;;;;5091297;28;20243;-61
2024/02/20 03:47:14;;;;;;;6.53;3.85;;;8.10;99.90;;;;;;5091298;28;20205;-61
2024/02/20 03:49:43;;;;;;;5.00;4.50;;;8.20;99.90;;;;;;5091251;28;20219;-61
2024/02/20 03:52:11;;;;;;;7.83;5.33;;;8.20;99.90;;;;;;5090819;28;20750;-61
2024/02/20 03:54:38;;;;;;;5.15;3.72;;;8.10;99.90;;;;;;5091216;28;20481;-62
2024/02/20 03:57:05;;;;;;;7.97;4.03;;;8.20;99.90;;;;;;5091365;28;20254;-61
2024/02/20 03:59:32;;;;;;;7.15;4.18;;;8.20;99.90;;;;;;5090896;28;20299;-61
2024/02/20 04:01:59;;;;;;;6.03;3.88;;;8.20;99.90;;;;;;5090506;28;20201;-61
2024/02/20 04:04:26;;;;;;;3.90;3.50;;;8.20;99.90;;;;;;5091201;28;20274;-60
2024/02/20 04:06:53;;;;;;;6.22;3.45;;;8.20;99.90;;;;;;5091317;28;20228;-62
2024/02/20 04:09:22;;;;;;;4.68;3.60;;;8.20;99.90;;;;;;5091039;28;20213;-61
2024/02/20 04:11:48;;;;;;;4.95;3.47;;;8.20;99.90;;;;;;5090532;28;20229;-61
2024/02/20 04:14:15;;;;;;;5.55;3.90;;;8.20;99.90;;;;;;5090802;28;20599;-61
2024/02/20 04:16:42;;;;;;;6.93;3.28;;;8.20;99.90;;;;;;5091076;28;20213;-61
2024/02/20 04:19:09;;;;;;;5.13;3.80;;;8.20;99.90;;;;;;5090497;28;20205;-61
2024/02/20 04:21:36;;;;;;;5.07;4.15;;;8.20;99.90;;;;;;5090323;28;20211;-61
2024/02/20 04:24:03;;;;;;;6.20;4.25;;;8.20;99.90;;;;;;5090613;28;20723;-61
2024/02/20 04:26:31;;;;;;;5.30;4.75;;;8.20;99.90;;;;;;5090699;28;20213;-61
2024/02/20 04:28:57;;;;;;;6.45;3.78;;;8.20;99.90;;;;;;5090311;28;20653;-61
2024/02/20 04:31:24;;;;;;;6.23;4.20;;;8.20;99.90;;;;;;5087910;28;20243;-61
2024/02/20 04:33:51;;;;;;;8.35;5.35;;;8.20;99.90;;;;;;5089674;28;20467;-60
2024/02/20 04:36:18;;;;;;;7.40;4.70;;;8.20;99.90;;;;;;5090480;28;20691;-61
2024/02/20 04:38:45;;;;;;;4.57;3.72;;;8.20;99.90;;;;;;5090221;28;20219;-61
2024/02/20 04:41:12;;;;;;;6.75;4.53;;;8.20;99.90;;;;;;5090442;28;20205;-60
2024/02/20 04:43:40;;;;;;;9.80;4.75;;;8.20;99.90;;;;;;5089773;28;20237;-61
2024/02/20 04:46:07;;;;;;;9.30;5.20;;;8.20;99.90;;;;;;5090430;28;20299;-61
2024/02/20 04:48:34;;;;;;;7.95;5.30;;;8.10;99.90;;;;;;5090178;28;20628;-61
2024/02/20 04:51:00;;;;;;;8.80;5.28;;;8.20;99.90;;;;;;5090206;28;20606;-61
2024/02/20 04:53:27;;;;;;;6.30;4.55;;;8.10;99.90;;;;;;5089431;28;20237;-61
2024/02/20 04:55:54;;;;;;;7.55;6.13;;;8.20;99.90;;;;;;5089998;28;20695;-61
2024/02/20 04:58:21;;;;;;;5.65;4.10;;;8.10;99.90;;;;;;5090237;28;20221;-61
2024/02/20 05:00:49;;;;;;;11.68;5.35;;;8.20;99.90;;;;;;5089763;28;20701;-61
2024/02/20 05:03:16;;;;;;;7.50;5.20;;;8.20;99.90;;;;;;5089406;28;20264;-60
2024/02/20 05:05:43;;;;;;;15.10;6.00;;;8.20;99.90;;;;;;5089897;28;20209;-61
2024/02/20 05:08:10;;;;;;;5.57;4.60;;;8.20;99.90;;;;;;5089796;28;20548;-61
2024/02/20 05:10:37;;;;;;;6.82;4.57;;;8.20;99.90;;;;;;5089746;28;20228;-61
2024/02/20 05:13:04;;;;;;;13.35;4.93;;;8.20;99.90;;;;;;5089792;28;20205;-61
2024/02/20 05:15:30;;;;;;;5.65;4.63;;;8.20;99.90;;;;;;5090058;28;20930;-62
2024/02/20 05:17:59;;;;;;;9.07;4.88;;;8.20;99.90;;;;;;5089747;28;20217;-61
2024/02/20 05:20:26;;;;;;;7.28;4.70;;;8.20;99.90;;;;;;5089466;28;20213;-61
2024/02/20 05:22:52;;;;;;;8.02;5.60;;;8.20;99.90;;;;;;5088855;28;20215;-61
2024/02/20 05:25:19;;;;;;;8.43;6.10;;;8.20;99.90;;;;;;5089659;28;20204;-62
2024/02/20 05:27:46;;;;;;;10.02;6.65;;;8.20;99.90;;;;;;5089395;28;20209;-61
2024/02/20 05:30:14;;;;;;;10.03;5.67;;;8.10;99.90;;;;;;5089306;28;20212;-61
2024/02/20 05:32:41;;;;;;;12.35;5.93;;;8.10;99.90;;;;;;5088850;28;20531;-61
2024/02/20 05:35:09;;;;;;;7.60;4.90;;;8.10;99.90;;;;;;5089228;28;20239;-61
2024/02/20 05:37:36;;;;;;;9.27;6.15;;;8.20;99.90;;;;;;5089523;28;20455;-61
2024/02/20 05:40:04;;;;;;;12.15;6.07;;;8.10;99.90;;;;;;5089289;28;20583;-61
2024/02/20 05:42:31;;;;;;;5.88;4.68;;;8.10;99.90;;;;;;5088926;28;20292;-60
2024/02/20 05:44:57;;;;;;;7.28;5.78;;;8.10;99.90;;;;;;5089259;28;20767;-61
2024/02/20 05:47:24;;;;;;;9.32;5.00;;;8.10;99.90;;;;;;5089374;28;20336;-61
2024/02/20 05:49:51;;;;;;;8.60;4.70;;;8.10;99.90;;;;;;5089160;28;20583;-61
2024/02/20 05:52:20;;;;;;;8.43;5.25;;;8.10;99.90;;;;;;5088641;28;20229;-61
2024/02/20 05:54:47;;;;;;;7.25;5.00;;;8.10;99.90;;;;;;5089051;28;20642;-61
2024/02/20 05:57:14;;;;;;;12.68;8.13;;;8.10;99.90;;;;;;5088494;28;20201;-61
2024/02/20 05:59:41;;;;;;;12.80;5.68;;;8.10;99.90;;;;;;5088793;28;20305;-61
2024/02/20 06:02:08;;;;;;;11.95;6.03;;;8.10;99.90;;;;;;5088227;28;20211;-62
2024/02/20 06:04:34;;;;;;;12.43;6.45;;;8.00;99.90;;;;;;5088823;28;20225;-61
2024/02/20 06:07:01;;;;;;;8.50;5.10;;;8.00;99.90;;;;;;5088704;28;20205;-61
2024/02/20 06:09:30;;;;;;;17.15;6.07;;;8.00;99.90;;;;;;5088781;28;20232;-61
2024/02/20 06:11:59;;;;;;;9.23;5.47;;;8.00;99.90;;;;;;5088236;28;20235;-61
2024/02/20 06:14:26;;;;;;;10.63;8.00;;;8.00;99.90;;;;;;5088826;28;20238;-61
2024/02/20 06:16:52;;;;;;;16.08;7.82;;;8.00;99.90;;;;;;5088761;28;20209;-61
2024/02/20 06:19:19;;;;;;;10.18;5.55;;;8.00;99.90;;;;;;5088738;28;20209;-61
2024/02/20 06:21:46;;;;;;;14.57;6.45;;;8.00;99.90;;;;;;5088257;28;20635;-61
2024/02/20 06:24:13;;;;;;;10.77;6.05;;;8.00;99.90;;;;;;5088545;28;20239;-61
2024/02/20 06:26:41;;;;;;;9.87;5.80;;;8.00;99.90;;;;;;5087180;28;20304;-61
2024/02/20 06:29:10;;;;;;;13.75;6.13;;;8.00;99.90;;;;;;5078188;28;20444;-61
2024/02/20 06:31:38;;;;;;;10.45;6.22;;;8.00;99.90;;;;;;5076166;28;20313;-61
2024/02/20 06:34:07;;;;;;;17.58;7.35;;;8.00;99.90;;;;;;5088686;28;20959;-61
2024/02/20 06:36:34;;;;;;;12.90;6.70;;;8.00;99.90;;;;;;5088632;28;20676;-61
2024/02/20 06:39:02;;;;;;;13.18;7.05;;;8.00;99.90;;;;;;5088423;28;20215;-61
2024/02/20 06:41:29;;;;;;;13.13;5.82;;;8.00;99.90;;;;;;5088557;28;20348;-61
2024/02/20 06:43:57;;;;;;;16.40;9.68;;;8.00;99.90;;;;;;5087655;28;20240;-61
2024/02/20 06:46:24;;;;;;;15.40;6.90;;;8.00;99.90;;;;;;5088464;28;20205;-61
2024/02/20 06:48:51;;;;;;;13.35;7.47;;;8.00;99.90;;;;;;5088587;28;20648;-61
2024/02/20 06:51:21;;;;;;;13.80;8.43;;;8.00;99.90;;;;;;5088541;28;20229;-61
2024/02/20 06:53:48;;;;;;;9.75;6.13;;;8.00;99.90;;;;;;5087905;28;20233;-61
2024/02/20 06:56:15;;;;;;;8.15;6.88;;;8.00;99.90;;;;;;5088231;28;20213;-61
2024/02/20 06:58:42;;;;;;;16.73;8.38;;;8.00;99.90;;;;;;5088285;28;20212;-61
2024/02/20 07:01:10;;;;;;;12.77;6.63;;;8.00;99.90;;;;;;5088173;28;20308;-61
2024/02/20 07:03:37;;;;;;;14.35;6.28;;;8.00;99.90;;;;;;5087597;28;20296;-61
2024/02/20 07:06:04;;;;;;;17.48;6.28;;;8.00;99.90;;;;;;5088300;28;20333;-61
2024/02/20 07:08:31;;;;;;;14.65;7.20;;;8.00;99.90;;;;;;5088630;28;20209;-61
2024/02/20 07:10:58;;;;;;;14.73;8.00;;;8.00;99.90;;;;;;5091767;28;20227;-60
2024/02/20 07:13:25;;;;;;;8.25;6.95;;;8.10;99.90;;;;;;5091480;28;20247;-61
2024/02/20 07:15:52;;;;;;;7.95;7.15;;;8.10;99.90;;;;;;5092184;28;20574;-61
2024/02/20 07:18:20;;;;;;;18.00;7.47;;;8.10;99.90;;;;;;5092296;28;20304;-61
2024/02/20 07:20:46;;;;;;;14.82;7.25;;;8.20;99.90;;;;;;5092048;28;20204;-60
2024/02/20 07:23:13;;;;;;;12.75;6.55;;;8.20;99.90;;;;;;5091416;28;20225;-61
2024/02/20 07:25:40;;;;;;;10.00;5.78;;;8.20;99.90;;;;;;5091754;28;20591;-60
2024/02/20 07:28:10;;;;;;;9.35;5.93;;;8.30;99.90;;;;;;5091772;28;20300;-61
2024/02/20 07:30:38;;;;;;;14.65;7.22;;;8.30;99.90;;;;;;5091873;28;20216;-61
2024/02/20 07:33:05;;;;;;;12.57;7.15;;;8.30;99.90;;;;;;5091010;28;20727;-61
2024/02/20 07:35:33;;;;;;;14.23;7.53;;;8.40;99.90;;;;;;5091648;28;20722;-61
2024/02/20 07:38:00;;;;;;;13.23;6.88;;;8.30;99.90;;;;;;5091535;28;20209;-61
2024/02/20 07:40:27;;;;;;;11.40;6.80;;;8.40;99.90;;;;;;5091575;28;21041;-61
2024/02/20 07:42:53;;;;;;;15.77;7.30;;;8.40;99.90;;;;;;5090984;28;20300;-61
2024/02/20 07:45:20;;;;;;;10.52;6.25;;;8.50;99.90;;;;;;5091535;28;20598;-61
2024/02/20 07:47:47;;;;;;;12.60;7.10;;;8.50;99.90;;;;;;5088572;28;20243;-61
2024/02/20 07:50:14;;;;;;;11.02;6.10;;;8.50;99.90;;;;;;5090987;28;20228;-62
2024/02/20 07:52:42;;;;;;;11.43;7.40;;;8.50;99.90;;;;;;5090368;28;20617;-61
2024/02/20 07:55:09;;;;;;;22.35;8.40;;;8.50;99.90;;;;;;5091294;28;20651;-61
2024/02/20 07:57:36;;;;;;;6.70;5.03;;;8.50;99.90;;;;;;5091307;28;20220;-61
2024/02/20 08:00:05;;;;;;;6.25;5.60;;;8.50;99.90;;;;;;5090197;28;20663;-61
2024/02/20 08:02:32;;;;;;;13.15;6.28;;;8.50;99.90;;;;;;5078639;28;20198;-61
2024/02/20 08:04:58;;;;;;;16.55;9.10;;;8.50;99.90;;;;;;5080384;28;20235;-62
2024/02/20 08:07:25;;;;;;;26.70;9.80;;;8.50;99.90;;;;;;5072118;28;20247;-61
2024/02/20 08:09:55;;;;;;;10.75;6.10;;;8.50;99.90;;;;;;5090833;28;20587;-61
2024/02/20 08:12:22;;;;;;;11.85;6.60;;;8.50;99.90;;;;;;5089951;28;20274;-61
2024/02/20 08:14:49;;;;;;;12.07;7.72;;;8.50;99.90;;;;;;5090498;28;20741;-62
2024/02/20 08:17:16;;;;;;;11.50;7.65;;;8.50;99.90;;;;;;5090430;28;20235;-61
2024/02/20 08:19:43;;;;;;;19.73;8.32;;;8.50;99.90;;;;;;5089903;28;20577;-62
2024/02/20 08:22:10;;;;;;;12.60;7.55;;;8.50;99.90;;;;;;5090008;28;20800;-61
2024/02/20 08:24:36;;;;;;;12.90;8.43;;;8.50;99.90;;;;;;5086753;28;20231;-61
2024/02/20 08:27:05;;;;;;;13.40;6.93;;;8.50;99.90;;;;;;5085485;28;20469;-61
2024/02/20 08:29:31;;;;;;;12.55;8.98;;;8.50;99.90;;;;;;5077931;28;20288;-61
2024/02/20 08:31:58;;;;;;;13.55;7.93;;;8.40;99.90;;;;;;5086844;28;20229;-61
2024/02/20 08:34:25;;;;;;;17.38;7.43;;;8.40;99.90;;;;;;5089470;28;20228;-61
2024/02/20 08:36:52;;;;;;;9.65;6.82;;;8.40;99.90;;;;;;5090001;28;20213;-61
2024/02/20 08:39:20;;;;;;;12.43;7.65;;;8.40;99.90;;;;;;5089975;28;20212;-61
2024/02/20 08:41:46;;;;;;;23.17;9.15;;;8.30;99.90;;;;;;5089118;28;20645;-61
2024/02/20 08:44:15;;;;;;;9.80;6.87;;;8.30;99.90;;;;;;5089428;28;20232;-61
2024/02/20 08:46:41;;;;;;;11.73;6.07;;;8.30;99.90;;;;;;5081427;28;20457;-61
2024/02/20 08:49:08;;;;;;;9.82;5.53;;;8.30;99.90;;;;;;5089461;28;20494;-61
2024/02/20 08:51:35;;;;;;;15.73;7.50;;;8.40;99.90;;;;;;5077335;28;20216;-60
2024/02/20 08:54:02;;;;;;;10.50;7.50;;;8.40;99.90;;;;;;5075028;28;20231;-61
2024/02/20 08:56:29;;;;;;;11.80;6.30;;;8.40;99.90;;;;;;5089499;28;20246;-61
2024/02/20 08:58:55;;;;;;;10.18;6.70;;;8.40;99.90;;;;;;5091295;28;20473;-61
2024/02/20 09:01:24;;;;;;;11.10;6.40;;;8.50;99.90;;;;;;5083340;28;20239;-60
2024/02/20 09:03:52;;;;;;;15.00;7.15;;;8.50;99.90;;;;;;5077065;28;20830;-62
2024/02/20 09:06:19;;;;;;;14.90;6.82;;;8.70;99.90;;;;;;5088483;28;20209;-61
2024/02/20 09:08:45;;;;;;;14.43;6.53;;;8.70;99.90;;;;;;5089155;28;20255;-62
2024/02/20 09:11:12;;;;;;;15.30;6.63;;;8.70;99.90;;;;;;5089085;28;20220;-61
2024/02/20 09:13:40;;;;;;;17.87;5.70;;;8.80;99.90;;;;;;5088499;28;20255;-62
2024/02/20 09:16:07;;;;;;;10.68;7.00;;;8.80;99.90;;;;;;5088777;28;20553;-62
2024/02/20 09:18:38;;;;;;;10.03;5.77;;;8.80;99.90;;;;;;5082227;28;20591;-61
2024/02/20 09:21:06;;;;;;;14.53;5.90;;;8.90;99.90;;;;;;5079624;28;20439;-61
2024/02/20 09:23:37;;;;;;;6.40;5.70;;;9.00;99.90;;;;;;5078333;28;20550;-61
2024/02/20 09:26:04;;;;;;;14.30;7.40;;;9.10;99.90;;;;;;5083623;28;20479;-62
2024/02/20 09:28:31;;;;;;;7.90;4.57;;;9.20;99.90;;;;;;5088852;28;20903;-62
2024/02/20 09:30:58;;;;;;;16.47;5.93;;;9.40;99.90;;;;;;5088503;28;20455;-62
2024/02/20 09:33:25;;;;;;;7.20;4.27;;;9.50;99.90;;;;;;5083372;28;20496;-62
2024/02/20 09:35:53;;;;;;;12.67;7.93;;;9.70;99.90;;;;;;5078127;28;20455;-61
2024/02/20 09:38:20;;;;;;;8.43;4.57;;;9.90;99.90;;;;;;5074741;28;20448;-62
2024/02/20 09:40:48;;;;;;;8.07;4.80;;;10.10;99.90;;;;;;5078850;28;20443;-62
2024/02/20 09:43:17;;;;;;;12.40;5.33;;;10.20;99.90;;;;;;5077528;28;20467;-61
2024/02/20 09:45:45;;;;;;;13.30;4.87;;;10.30;99.90;;;;;;5078231;28;20951;-61
2024/02/20 09:48:15;;;;;;;8.77;4.37;;;10.40;99.90;;;;;;5079322;28;20831;-62
2024/02/20 09:50:43;;;;;;;8.03;6.13;;;10.40;99.90;;;;;;5078131;28;20969;-62
2024/02/20 09:53:13;;;;;;;8.70;4.70;;;10.40;99.90;;;;;;5075515;28;21075;-62
2024/02/20 09:55:41;;;;;;;10.70;5.57;;;10.50;99.90;;;;;;5083674;28;20443;-62
2024/02/20 09:58:08;;;;;;;6.93;3.77;;;10.60;99.90;;;;;;5080223;28;20450;-62
2024/02/20 10:00:36;;;;;;;9.13;5.97;;;10.80;99.90;;;;;;5074810;28;20451;-61
2024/02/20 10:03:05;;;;;;;3.90;3.60;;;11.10;99.90;;;;;;5076294;28;20541;-62
2024/02/20 10:05:33;;;;;;;11.17;4.73;;;11.20;99.90;;;;;;5078706;28;21958;-61
2024/02/20 10:08:02;;;;;;;8.30;6.13;;;11.50;99.90;;;;;;5076898;28;20529;-62
2024/02/20 10:10:32;;;;;;;10.00;5.30;;;11.70;99.90;;;;;;5080253;28;20463;-62
2024/02/20 10:13:00;;;;;;;6.10;3.67;;;11.90;99.90;;;;;;5078026;28;20545;-61
2024/02/20 10:15:27;;;;;;;5.77;3.60;;;11.90;99.90;;;;;;5074549;28;21299;-62
2024/02/20 10:17:59;;;;;;;9.53;3.80;;;12.00;99.90;;;;;;5076960;28;20440;-62
2024/02/20 10:20:27;;;;;;;14.03;4.50;;;12.10;99.90;;;;;;5066090;28;20455;-62
2024/02/20 10:23:03;;;;;;;5.07;3.20;;;12.20;99.90;;;;;;5066002;28;20444;-61
2024/02/20 10:25:32;;;;;;;10.67;4.03;;;12.50;99.90;;;;;;5069404;28;20826;-62
2024/02/20 10:27:59;;;;;;;10.47;4.70;;;12.60;99.90;;;;;;5076155;28;20529;-62
2024/02/20 10:30:26;;;;;;;4.80;2.90;;;12.60;99.90;;;;;;5077989;28;21052;-62
2024/02/20 10:32:53;;;;;;;5.60;3.63;;;12.80;99.90;;;;;;5076317;28;20476;-62
2024/02/20 10:35:21;;;;;;;7.87;3.37;;;13.00;99.90;;;;;;5071919;28;20448;-62
2024/02/20 10:37:49;;;;;;;9.40;4.07;;;13.20;99.90;;;;;;5067579;28;21335;-62
2024/02/20 10:40:16;;;;;;;8.87;4.57;;;13.30;99.70;;;;;;5067074;28;20514;-61
2024/02/20 10:42:44;;;;;;;9.97;6.07;;;13.20;99.80;;;;;;5067523;28;20534;-61
2024/02/20 10:45:12;;;;;;;7.00;4.37;;;13.00;98.80;;;;;;5115443;22;20888;-63
2024/02/20 10:47:44;;;;;;;4.73;4.17;;;12.80;99.20;;;;;;5111087;28;20532;-63
2024/02/20 10:50:13;;;;;;;8.43;3.53;;;12.50;99.90;;;;;;5106980;28;20454;-64
2024/02/20 10:52:40;;;;;;;8.27;4.77;;;12.40;99.50;;;;;;5110700;28;20488;-64
2024/02/20 10:55:10;;;;;;;14.40;4.80;;;12.50;99.60;;;;;;5101882;28;20538;-64
2024/02/20 10:57:38;;;;;;;8.63;4.80;;;12.60;99.90;;;;;;5091388;28;20475;-64
2024/02/20 11:00:11;;;;;;;9.20;4.23;;;12.60;99.90;;;;;;5091029;28;20546;-64
2024/02/20 11:02:38;;;;;;;10.20;4.93;;;12.40;99.90;;;;;;5090744;28;20439;-64
2024/02/20 11:05:05;;;;;;;9.07;5.80;;;12.40;99.80;;;;;;5090815;28;20554;-64
2024/02/20 11:07:33;;;;;;;7.30;4.93;;;12.60;99.80;;;;;;5091697;28;20443;-64
2024/02/20 11:10:08;;;;;;;10.23;4.20;;;12.60;99.80;;;;;;5090597;28;20435;-64
2024/02/20 11:12:35;;;;;;;9.40;5.13;;;12.60;98.90;;;;;;5088753;28;20482;-64
2024/02/20 11:15:13;;;;;;;9.13;4.90;;;12.50;99.50;;;;;;5090777;28;20540;-64
2024/02/20 11:17:41;;;;;;;10.23;4.70;;;12.30;99.30;;;;;;5091023;28;20446;-64
2024/02/20 11:20:09;;;;;;;5.13;3.90;;;12.10;99.90;;;;;;5087734;28;20442;-63
2024/02/20 11:22:36;;;;;;;10.87;4.37;;;11.80;99.90;;;;;;5090169;28;20439;-63
2024/02/20 11:25:09;;;;;;;9.77;4.33;;;11.70;99.90;;;;;;5089908;28;20465;-63
2024/02/20 11:27:41;;;;;;;7.10;4.07;;;11.60;99.90;;;;;;5090591;28;20466;-64
2024/02/20 11:30:18;;;;;;;7.10;4.20;;;11.60;99.90;;;;;;5087866;28;20450;-64
2024/02/20 11:32:46;;;;;;;6.27;4.33;;;11.50;99.90;;;;;;5090113;28;20482;-64
2024/02/20 11:35:25;;;;;;;10.50;5.67;;;11.50;99.90;;;;;;5090415;28;20469;-63
2024/02/20 11:37:53;;;;;;;6.27;4.00;;;11.50;99.90;;;;;;5086994;28;21037;-63
2024/02/20 11:40:24;;;;;;;10.40;4.33;;;11.60;99.90;;;;;;5089393;28;20950;-64
2024/02/20 11:42:52;;;;;;;12.13;5.87;;;11.90;99.90;;;;;;5086885;28;20454;-64
2024/02/20 11:45:21;;;;;;;8.00;4.70;;;12.10;99.90;;;;;;5089666;28;20466;-64
2024/02/20 11:48:01;;;;;;;9.10;4.30;;;12.30;99.90;;;;;;5090183;28;20485;-64
2024/02/20 11:50:28;;;;;;;8.90;5.00;;;12.40;99.90;;;;;;5089373;28;20454;-64
2024/02/20 11:53:03;;;;;;;11.83;4.70;;;12.30;99.90;;;;;;5082199;28;20885;-64
2024/02/20 11:55:32;;;;;;;7.80;3.70;;;12.30;99.90;;;;;;5087274;28;20470;-64
2024/02/20 11:57:59;;;;;;;9.17;5.10;;;12.40;99.90;;;;;;5090329;28;20486;-64
2024/02/20 12:00:28;;;;;;;13.20;5.93;;;12.50;99.90;;;;;;5088520;28;20450;-64
2024/02/20 12:02:56;;;;;;;8.07;5.03;;;12.70;99.90;;;;;;5073654;28;20462;-64
2024/02/20 12:05:24;;;;;;;9.37;4.23;;;12.70;99.90;;;;;;5073779;28;20525;-64
2024/02/20 12:07:51;;;;;;;7.80;3.57;;;12.70;99.70;;;;;;5071059;28;20448;-64
2024/02/20 12:10:18;;;;;;;5.90;3.70;;;12.80;99.90;;;;;;5074339;28;20468;-64
2024/02/20 12:12:45;;;;;;;8.40;4.23;;;12.80;99.90;;;;;;5072807;28;20494;-63
2024/02/20 12:15:12;;;;;;;8.70;3.90;;;12.80;99.90;;;;;;5072621;28;20849;-63
2024/02/20 12:17:42;;;;;;;7.63;4.67;;;12.80;99.90;;;;;;5087354;28;20945;-63
2024/02/20 12:20:10;;;;;;;8.13;4.10;;;13.00;99.90;;;;;;5090129;28;20455;-63
2024/02/20 12:22:38;;;;;;;10.73;5.33;;;13.20;99.80;;;;;;5089671;28;20450;-63
2024/02/20 12:25:08;;;;;;;10.33;4.87;;;13.40;99.60;;;;;;5090006;28;20475;-63
2024/02/20 12:27:36;;;;;;;5.70;3.40;;;13.70;98.30;;;;;;5089969;28;20451;-63
2024/02/20 12:30:03;;;;;;;6.10;3.47;;;13.90;97.90;;;;;;5089589;28;20467;-64
2024/02/20 12:32:30;;;;;;;6.87;5.97;;;14.00;98.00;;;;;;5089156;28;20455;-64
2024/02/20 12:34:58;;;;;;;7.27;3.63;;;14.10;98.20;;;;;;5090020;28;20545;-64
2024/02/20 12:37:25;;;;;;;10.67;3.70;;;14.30;98.80;;;;;;5090177;28;20443;-64
2024/02/20 12:39:53;;;;;;;6.27;3.60;;;14.50;97.50;;;;;;5083663;28;20447;-64
2024/02/20 12:42:20;;;;;;;7.40;4.00;;;14.60;98.10;;;;;;5089150;28;20490;-63
2024/02/20 12:44:50;;;;;;;10.33;4.57;;;14.40;98.50;;;;;;5088548;28;21035;-63
2024/02/20 12:47:17;;;;;;;7.70;3.93;;;14.30;97.70;;;;;;5089228;28;20533;-64
2024/02/20 12:49:44;;;;;;;9.00;4.33;;;14.20;97.70;;;;;;5083715;28;20453;-63
2024/02/20 12:52:12;;;;;;;5.73;3.37;;;13.90;97.70;;;;;;5083176;28;20453;-63